Time;durP1;ratioP1;P1;durP2;ratioP2;P2;SDS_P1;SDS_P2;PMS_P1;PMS_P2;Temp;Humidity;BMP_temperature;BMP_pressure;BME280_temperature;BME280_humidity;BME280_pressure;Samples;Min_cycle;Max_cycle;Signal;HPM_P1;HPM_P2
2022/08/12 00:44:09;;;;;;;1.52;1.23;;;24.00;46.40;;;;;;5009259;28;20044;-67
2022/08/12 00:46:49;;;;;;;2.70;1.50;;;23.90;46.60;;;;;;5010500;28;20061;-68
2022/08/12 00:49:17;;;;;;;1.52;1.42;;;23.90;46.90;;;;;;5008009;28;20020;-67
2022/08/12 00:54:28;;;;;;;2.20;1.50;;;23.80;47.00;;;;;;5009710;28;20084;-67
2022/08/12 00:56:54;;;;;;;1.75;1.50;;;23.80;47.20;;;;;;5008777;28;20062;-67
2022/08/12 00:59:23;;;;;;;1.58;1.30;;;23.80;47.20;;;;;;5003178;28;20026;-67
2022/08/12 01:01:51;;;;;;;1.55;1.33;;;23.80;47.40;;;;;;5012305;28;20100;-67
2022/08/12 01:12:37;;;;;;;1.88;1.23;;;23.60;48.00;;;;;;5003071;28;20040;-67
2022/08/12 01:15:03;;;;;;;1.33;1.20;;;23.50;48.10;;;;;;5009154;28;20065;-66
2022/08/12 01:17:30;;;;;;;1.90;1.30;;;23.50;48.20;;;;;;5010487;28;20068;-67
2022/08/12 01:19:59;;;;;;;2.60;1.40;;;23.50;48.30;;;;;;5008307;28;20109;-67
2022/08/12 01:22:44;;;;;;;1.88;1.65;;;23.40;48.60;;;;;;5005337;28;20022;-67
2022/08/12 01:25:18;;;;;;;1.73;1.50;;;23.40;48.90;;;;;;5008880;28;20021;-67
2022/08/12 01:27:48;;;;;;;3.58;1.70;;;23.30;49.00;;;;;;5007396;28;20574;-66
2022/08/12 01:30:15;;;;;;;2.10;1.25;;;23.30;49.30;;;;;;5005525;28;20034;-67
2022/08/12 01:32:46;;;;;;;3.05;1.65;;;23.20;49.30;;;;;;5004851;28;20121;-67
2022/08/12 01:35:14;;;;;;;3.50;1.52;;;23.20;49.60;;;;;;5009616;28;20029;-67
2022/08/12 01:38:04;;;;;;;2.63;1.50;;;23.10;49.80;;;;;;5009841;28;20468;-66
2022/08/12 01:40:33;;;;;;;1.60;1.48;;;23.10;49.90;;;;;;5003336;28;20424;-66
2022/08/12 01:43:12;;;;;;;3.70;1.60;;;23.00;50.00;;;;;;5006453;28;20022;-67
2022/08/12 01:45:48;;;;;;;1.95;1.45;;;23.00;50.10;;;;;;5010050;28;20026;-66
2022/08/12 01:48:33;;;;;;;2.70;1.60;;;23.00;50.40;;;;;;5006618;28;20072;-67
2022/08/12 01:51:27;;;;;;;1.63;1.52;;;22.90;50.50;;;;;;5003566;28;20081;-66
2022/08/12 01:54:08;;;;;;;2.40;1.52;;;22.90;50.60;;;;;;5004744;28;20520;-65
2022/08/12 01:57:05;;;;;;;1.63;1.50;;;22.80;50.80;;;;;;5009567;28;20035;-67
2022/08/12 01:59:48;;;;;;;1.92;1.42;;;22.80;50.80;;;;;;5005804;28;20165;-67
2022/08/12 02:02:25;;;;;;;1.83;1.60;;;22.80;51.00;;;;;;5006790;28;20010;-66
2022/08/12 02:11:21;;;;;;;2.83;1.88;;;22.70;51.40;;;;;;5007724;28;20084;-66
2022/08/12 02:14:23;;;;;;;2.63;1.90;;;22.70;51.60;;;;;;5008413;28;20073;-67
2022/08/12 02:17:34;;;;;;;2.13;1.80;;;22.60;51.80;;;;;;5011958;28;20036;-66
2022/08/12 02:20:03;;;;;;;1.95;1.60;;;22.60;51.90;;;;;;5004132;28;20155;-66
2022/08/12 02:22:35;;;;;;;2.75;1.98;;;22.60;51.90;;;;;;5005815;28;20501;-67
2022/08/12 02:25:14;;;;;;;1.90;1.70;;;22.50;52.30;;;;;;5002284;28;20504;-66
2022/08/12 02:27:45;;;;;;;4.22;2.00;;;22.50;52.40;;;;;;5009316;28;20037;-66
2022/08/12 02:30:18;;;;;;;1.90;1.50;;;22.50;52.80;;;;;;5004836;28;20025;-67
2022/08/12 02:32:45;;;;;;;2.97;1.95;;;22.40;52.70;;;;;;5004990;28;20084;-68
2022/08/12 02:35:14;;;;;;;3.22;2.00;;;22.40;52.90;;;;;;5002293;28;20038;-66
2022/08/12 02:37:41;;;;;;;2.75;1.52;;;22.40;52.90;;;;;;5011492;28;20456;-67
2022/08/12 02:40:09;;;;;;;1.70;1.60;;;22.30;53.00;;;;;;5005952;28;20065;-66
2022/08/12 02:42:37;;;;;;;3.42;2.10;;;22.30;53.10;;;;;;5007248;28;20034;-66
2022/08/12 02:45:06;;;;;;;2.08;1.90;;;22.30;54.00;;;;;;5010400;28;20554;-66
2022/08/12 02:47:38;;;;;;;1.63;1.50;;;22.30;53.40;;;;;;5010603;28;20025;-66
2022/08/12 02:50:05;;;;;;;2.35;1.90;;;22.20;53.30;;;;;;5009185;28;20388;-66
2022/08/12 02:52:33;;;;;;;1.58;1.40;;;22.20;53.30;;;;;;5010819;28;20825;-67
2022/08/12 02:55:09;;;;;;;2.63;1.88;;;22.20;53.20;;;;;;5010152;28;20026;-67
2022/08/12 02:57:34;;;;;;;2.10;1.90;;;22.20;53.60;;;;;;5017483;28;20021;-66
2022/08/12 03:00:02;;;;;;;2.70;1.90;;;22.10;53.70;;;;;;5011755;28;20032;-66
2022/08/12 03:02:29;;;;;;;3.80;1.70;;;22.10;53.70;;;;;;5015375;28;20018;-65
2022/08/12 03:04:56;;;;;;;2.25;1.80;;;22.10;53.60;;;;;;5028210;28;20026;-66
2022/08/12 03:07:25;;;;;;;3.13;1.70;;;22.10;53.60;;;;;;5010026;28;20028;-66
2022/08/12 03:09:55;;;;;;;2.75;2.00;;;22.20;53.50;;;;;;5010053;28;20032;-67
2022/08/12 03:12:23;;;;;;;2.67;1.50;;;22.20;53.40;;;;;;4990447;28;20114;-66
2022/08/12 03:14:50;;;;;;;3.30;1.80;;;22.20;53.40;;;;;;5007903;28;20026;-66
2022/08/12 03:17:28;;;;;;;2.28;2.00;;;22.10;53.50;;;;;;5023050;28;20069;-66
2022/08/12 03:19:55;;;;;;;4.18;2.17;;;22.10;54.00;;;;;;5010062;28;20112;-68
2022/08/12 03:22:23;;;;;;;5.72;3.28;;;22.00;54.40;;;;;;5009762;28;20025;-67
2022/08/12 03:24:50;;;;;;;17.45;10.35;;;21.90;54.80;;;;;;5009970;28;20018;-67
2022/08/12 03:27:16;;;;;;;7.45;4.47;;;21.90;54.90;;;;;;5009704;28;20026;-67
2022/08/12 03:29:48;;;;;;;3.92;2.45;;;21.80;54.70;;;;;;5009724;28;20022;-68
2022/08/12 03:32:14;;;;;;;3.90;2.42;;;21.80;55.10;;;;;;5009942;28;20030;-67
2022/08/12 03:34:41;;;;;;;3.38;2.30;;;21.70;55.30;;;;;;5009503;28;20048;-67
2022/08/12 03:37:09;;;;;;;3.63;2.60;;;21.70;55.70;;;;;;5009623;28;20033;-67
2022/08/12 03:42:32;;;;;;;5.20;2.55;;;21.60;55.80;;;;;;5009502;28;20069;-67
2022/08/12 04:01:58;;;;;;;3.45;2.40;;;21.40;55.90;;;;;;5012832;28;20436;-65
2022/08/12 04:04:28;;;;;;;2.88;2.08;;;21.50;55.80;;;;;;5013122;28;20026;-65
2022/08/12 04:06:56;;;;;;;6.50;2.67;;;21.40;55.80;;;;;;5013123;28;20109;-64
2022/08/12 04:09:22;;;;;;;2.95;2.08;;;21.30;56.20;;;;;;5013345;28;20057;-66
2022/08/12 04:14:34;;;;;;;3.65;2.67;;;21.30;56.40;;;;;;5013039;28;20045;-65
2022/08/12 04:17:01;;;;;;;2.30;2.10;;;21.30;56.30;;;;;;5012887;28;20117;-65
2022/08/12 04:19:28;;;;;;;5.07;2.30;;;21.30;56.00;;;;;;5012213;28;20041;-66
2022/08/12 04:21:54;;;;;;;3.10;2.30;;;21.30;55.90;;;;;;5012560;28;20593;-65
2022/08/12 04:24:23;;;;;;;3.75;2.55;;;21.30;55.80;;;;;;5011949;28;20049;-65
2022/08/12 04:26:49;;;;;;;3.78;2.47;;;21.30;55.80;;;;;;5012915;28;20087;-67
2022/08/12 04:29:14;;;;;;;2.70;2.10;;;21.30;56.10;;;;;;5012479;28;20425;-66
2022/08/12 04:31:42;;;;;;;3.83;2.28;;;21.20;55.90;;;;;;5012668;28;20038;-66
2022/08/12 04:34:10;;;;;;;3.90;2.20;;;21.20;55.80;;;;;;5009702;28;20029;-67
2022/08/12 04:36:37;;;;;;;2.97;2.10;;;21.20;55.80;;;;;;5012892;28;20030;-66
2022/08/12 04:39:06;;;;;;;2.65;2.05;;;21.30;55.60;;;;;;5012352;28;20049;-67
2022/08/12 04:41:33;;;;;;;2.58;2.08;;;21.30;55.50;;;;;;5011015;28;20459;-66
2022/08/12 04:43:59;;;;;;;1.70;1.60;;;21.30;55.40;;;;;;5012403;28;20014;-66
2022/08/12 04:46:25;;;;;;;3.47;1.90;;;21.30;55.20;;;;;;5011983;28;20025;-66
2022/08/12 04:48:52;;;;;;;3.50;2.10;;;21.30;55.10;;;;;;5012355;28;20022;-66
2022/08/12 04:51:20;;;;;;;3.15;1.88;;;21.30;54.80;;;;;;5012170;28;20022;-67
2022/08/12 04:53:47;;;;;;;2.30;1.85;;;21.40;54.60;;;;;;5012353;28;20033;-66
2022/08/12 04:56:13;;;;;;;2.90;1.67;;;21.50;54.40;;;;;;5012236;28;20022;-67
2022/08/12 04:58:39;;;;;;;2.65;1.85;;;21.60;54.00;;;;;;5012268;28;20049;-67
2022/08/12 05:01:05;;;;;;;3.35;1.67;;;21.60;53.70;;;;;;5011993;28;20072;-67
2022/08/12 05:03:30;;;;;;;2.55;2.00;;;21.70;53.70;;;;;;5010542;28;20125;-67
2022/08/12 05:05:56;;;;;;;4.80;2.05;;;21.60;53.40;;;;;;5011074;28;20455;-65
2022/08/12 05:08:22;;;;;;;3.70;2.40;;;21.70;53.30;;;;;;5012172;28;20034;-65
2022/08/12 05:10:49;;;;;;;2.30;2.10;;;21.70;53.20;;;;;;5011794;28;20108;-67
2022/08/12 05:13:30;;;;;;;2.60;1.92;;;21.70;53.00;;;;;;5011237;28;20481;-66
2022/08/12 05:15:55;;;;;;;5.20;2.40;;;21.70;52.80;;;;;;5011276;28;20113;-66
2022/08/12 05:18:21;;;;;;;4.43;2.42;;;21.80;52.80;;;;;;5012064;28;20109;-67
2022/08/12 05:20:48;;;;;;;2.67;2.22;;;21.70;52.60;;;;;;5011682;28;20064;-67
2022/08/12 05:23:19;;;;;;;2.38;1.92;;;21.80;52.40;;;;;;5012019;28;20030;-68
2022/08/12 05:25:48;;;;;;;3.80;2.20;;;21.90;52.20;;;;;;5011457;28;20041;-67
2022/08/12 05:28:15;;;;;;;3.10;2.17;;;21.90;52.00;;;;;;5011496;28;20030;-67
2022/08/12 05:30:42;;;;;;;3.03;2.10;;;21.90;51.90;;;;;;5011018;28;20029;-67
2022/08/12 05:33:09;;;;;;;4.18;2.17;;;22.00;51.80;;;;;;5011661;28;20060;-68
2022/08/12 05:35:40;;;;;;;3.65;1.92;;;22.60;51.20;;;;;;5011048;28;20022;-67
2022/08/12 05:40:52;;;;;;;4.10;2.10;;;24.50;47.50;;;;;;5011294;28;20377;-67
2022/08/12 05:43:18;;;;;;;4.47;2.30;;;25.40;45.40;;;;;;5011490;28;20026;-68
2022/08/12 05:45:45;;;;;;;2.58;2.10;;;26.00;44.20;;;;;;5011124;28;20030;-67
2022/08/12 05:48:12;;;;;;;4.10;2.15;;;26.40;43.10;;;;;;5010928;28;20123;-67
2022/08/12 05:50:37;;;;;;;6.90;2.35;;;26.90;42.50;;;;;;5010907;28;20488;-67
2022/08/12 05:53:04;;;;;;;3.58;2.00;;;27.40;41.50;;;;;;5010997;28;20029;-67
2022/08/12 05:55:30;;;;;;;3.13;1.83;;;27.80;40.50;;;;;;5011217;28;20033;-67
2022/08/12 05:57:56;;;;;;;2.38;2.00;;;28.40;40.20;;;;;;5011182;28;20034;-65
2022/08/12 06:00:27;;;;;;;3.47;1.98;;;28.60;39.40;;;;;;5010709;28;20527;-66
2022/08/12 06:02:59;;;;;;;2.22;2.00;;;29.00;38.80;;;;;;5011299;28;20101;-67
2022/08/12 06:05:26;;;;;;;2.35;1.92;;;29.20;38.40;;;;;;5011488;28;20026;-67
2022/08/12 06:07:56;;;;;;;2.90;1.80;;;29.50;37.60;;;;;;5011027;28;20028;-66
2022/08/12 06:10:22;;;;;;;2.15;1.90;;;29.70;37.50;;;;;;5010653;28;20076;-67
2022/08/12 06:12:49;;;;;;;3.63;1.92;;;29.80;37.10;;;;;;5009851;28;20500;-65
2022/08/12 06:15:18;;;;;;;2.88;1.77;;;30.10;36.70;;;;;;5009382;28;20030;-66
2022/08/12 06:17:44;;;;;;;2.85;1.40;;;30.30;36.40;;;;;;5000228;28;20084;-67
2022/08/12 06:20:12;;;;;;;2.53;1.83;;;30.80;36.30;;;;;;5005041;28;20026;-67
2022/08/12 06:22:38;;;;;;;1.80;1.50;;;31.30;35.40;;;;;;5008158;28;20530;-67
2022/08/12 06:25:05;;;;;;;2.30;1.80;;;31.70;35.00;;;;;;5010430;28;20014;-67
2022/08/12 06:27:31;;;;;;;4.10;2.00;;;31.70;34.20;;;;;;5010871;28;20025;-68
2022/08/12 06:29:57;;;;;;;2.63;1.73;;;31.80;33.90;;;;;;5008927;28;20064;-67
2022/08/12 06:32:23;;;;;;;3.40;2.08;;;31.70;33.80;;;;;;5007580;28;20037;-66
2022/08/12 06:34:49;;;;;;;2.20;1.83;;;32.10;33.80;;;;;;5010281;28;20621;-67
2022/08/12 06:37:17;;;;;;;2.35;1.70;;;32.50;33.40;;;;;;5010000;28;20033;-67
2022/08/12 06:39:43;;;;;;;3.17;1.85;;;32.70;32.90;;;;;;5010395;28;20056;-67
2022/08/12 06:44:52;;;;;;;3.33;2.13;;;32.70;32.60;;;;;;5009940;28;20092;-67
2022/08/12 06:47:20;;;;;;;2.30;1.88;;;32.60;32.70;;;;;;5010063;28;20034;-67
2022/08/12 06:49:47;;;;;;;2.25;1.88;;;32.90;32.70;;;;;;5009894;28;20103;-68
2022/08/12 06:52:13;;;;;;;3.55;1.88;;;32.90;32.30;;;;;;5005479;28;20022;-66
2022/08/12 06:54:40;;;;;;;2.92;1.83;;;32.70;32.40;;;;;;5010068;28;20408;-65
2022/08/12 06:57:05;;;;;;;3.25;1.90;;;33.10;32.60;;;;;;5010288;28;20511;-67
2022/08/12 06:59:34;;;;;;;1.90;1.70;;;33.20;32.10;;;;;;5010124;28;20105;-66
2022/08/12 07:01:59;;;;;;;1.70;1.60;;;33.30;32.30;;;;;;5009078;28;20014;-67
2022/08/12 07:04:25;;;;;;;1.88;1.65;;;33.70;32.00;;;;;;5002240;28;20037;-67
2022/08/12 07:06:51;;;;;;;1.85;1.50;;;33.80;31.90;;;;;;5010118;28;20022;-67
2022/08/12 07:09:16;;;;;;;2.80;1.73;;;34.10;31.90;;;;;;5010348;28;20029;-68
2022/08/12 07:11:43;;;;;;;2.60;1.80;;;34.60;31.40;;;;;;5002231;28;20160;-68
2022/08/12 07:14:08;;;;;;;2.75;1.90;;;34.50;30.90;;;;;;5003485;28;20041;-68
2022/08/12 07:16:52;;;;;;;2.10;1.67;;;34.60;30.40;;;;;;5008785;28;20026;-69
2022/08/12 07:19:19;;;;;;;2.95;1.90;;;34.50;30.50;;;;;;5010223;28;20030;-67
2022/08/12 07:21:46;;;;;;;3.42;1.90;;;34.40;30.50;;;;;;5007645;28;20026;-67
2022/08/12 07:24:11;;;;;;;3.25;1.80;;;34.20;30.20;;;;;;5010240;28;20562;-67
2022/08/12 07:26:40;;;;;;;2.08;1.88;;;34.50;30.00;;;;;;5012068;28;20026;-67
2022/08/12 07:29:06;;;;;;;4.57;2.00;;;34.70;29.90;;;;;;5012713;28;20105;-67
2022/08/12 07:31:32;;;;;;;1.92;1.70;;;34.50;29.80;;;;;;5009655;28;20085;-68
2022/08/12 07:33:58;;;;;;;2.80;2.00;;;34.90;29.90;;;;;;5018847;28;20030;-67
2022/08/12 07:36:24;;;;;;;2.30;2.00;;;35.10;29.50;;;;;;5011916;28;20037;-66
2022/08/12 07:38:50;;;;;;;2.08;1.77;;;35.10;29.00;;;;;;5013776;28;20022;-67
2022/08/12 07:41:26;;;;;;;2.67;1.95;;;34.80;29.10;;;;;;5013320;28;20080;-66
2022/08/12 07:43:57;;;;;;;2.08;1.88;;;34.60;29.10;;;;;;5011283;28;20456;-66
2022/08/12 07:46:28;;;;;;;3.05;1.88;;;35.00;29.60;;;;;;5014278;28;20026;-67
2022/08/12 07:49:01;;;;;;;3.08;1.60;;;34.70;29.90;;;;;;5011959;28;20017;-65
2022/08/12 07:51:27;;;;;;;2.78;1.80;;;35.20;30.00;;;;;;5010707;28;20129;-66
2022/08/12 07:53:56;;;;;;;4.50;1.80;;;35.30;30.00;;;;;;5011088;28;20034;-66
2022/08/12 07:56:21;;;;;;;4.63;1.80;;;35.20;30.00;;;;;;5013658;28;20017;-66
2022/08/12 07:58:47;;;;;;;2.30;1.92;;;35.20;30.30;;;;;;5012733;28;20510;-65
2022/08/12 08:01:16;;;;;;;3.67;2.30;;;35.00;30.30;;;;;;5012585;28;20026;-66
2022/08/12 08:06:30;;;;;;;3.75;1.95;;;33.80;30.30;;;;;;5014548;28;20176;-66
2022/08/12 08:08:57;;;;;;;2.35;1.90;;;33.10;31.10;;;;;;5008338;28;20040;-66
2022/08/12 08:14:09;;;;;;;3.90;2.15;;;31.80;31.80;;;;;;5009829;28;20531;-66
2022/08/12 08:16:36;;;;;;;2.53;2.10;;;31.50;32.40;;;;;;5011116;28;20033;-66
2022/08/12 08:19:02;;;;;;;3.63;2.20;;;31.10;32.30;;;;;;5007816;28;20033;-66
2022/08/12 08:21:32;;;;;;;4.15;1.90;;;30.70;32.90;;;;;;5011713;28;20105;-65
2022/08/12 08:24:13;;;;;;;1.90;1.70;;;30.50;33.30;;;;;;5008460;28;20057;-66
2022/08/12 08:26:39;;;;;;;;;;;30.50;33.80;;;;;;5011852;28;20184;-66
2022/08/12 08:29:07;;;;;;;3.05;1.90;;;30.30;33.70;;;;;;5013069;28;20444;-67
2022/08/12 08:31:33;;;;;;;3.47;1.98;;;30.30;34.10;;;;;;5024842;28;20033;-68
2022/08/12 08:34:00;;;;;;;2.55;2.00;;;30.30;34.20;;;;;;5013395;28;20021;-66
2022/08/12 08:36:26;;;;;;;2.00;1.70;;;30.20;34.60;;;;;;5011206;28;20409;-67
2022/08/12 08:38:51;;;;;;;4.63;2.08;;;30.30;34.50;;;;;;5010507;28;20029;-67
2022/08/12 08:44:01;;;;;;;3.75;2.00;;;30.40;34.00;;;;;;5011532;28;20600;-67
2022/08/12 08:46:27;;;;;;;3.65;1.95;;;30.30;34.00;;;;;;5011046;28;20048;-67
2022/08/12 08:48:53;;;;;;;3.45;1.83;;;30.40;34.10;;;;;;5014358;28;20057;-68
2022/08/12 08:51:20;;;;;;;4.00;2.20;;;30.60;34.10;;;;;;5011115;28;20392;-67
2022/08/12 08:53:45;;;;;;;2.58;1.80;;;30.80;33.90;;;;;;5014670;28;20496;-67
2022/08/12 08:56:11;;;;;;;2.13;1.92;;;30.80;33.60;;;;;;5013105;28;20076;-67
2022/08/12 08:58:37;;;;;;;4.20;2.05;;;30.90;33.10;;;;;;5012773;28;20033;-67
2022/08/12 09:01:03;;;;;;;3.60;2.20;;;30.90;32.40;;;;;;5010810;28;20030;-65
2022/08/12 09:03:29;;;;;;;3.55;2.00;;;30.80;31.90;;;;;;5012551;28;20037;-67
2022/08/12 09:05:55;;;;;;;2.58;2.10;;;30.70;31.90;;;;;;5010014;28;20026;-66
2022/08/12 09:08:21;;;;;;;4.07;2.00;;;30.70;32.10;;;;;;5011406;28;20405;-66
2022/08/12 09:10:47;;;;;;;3.67;2.28;;;30.70;31.90;;;;;;5010576;28;20034;-66
2022/08/12 09:13:31;;;;;;;5.85;2.05;;;30.90;31.80;;;;;;5010041;28;20033;-66
2022/08/12 09:15:57;;;;;;;2.90;1.95;;;30.90;30.70;;;;;;5011211;28;20488;-67
2022/08/12 09:18:23;;;;;;;3.58;2.08;;;31.10;31.20;;;;;;5013050;28;20026;-67
2022/08/12 09:20:49;;;;;;;3.00;2.00;;;31.20;30.50;;;;;;5011027;28;20022;-67
2022/08/12 09:23:16;;;;;;;2.97;1.50;;;31.10;30.40;;;;;;5010342;28;20076;-67
2022/08/12 09:25:43;;;;;;;2.95;1.95;;;31.10;31.30;;;;;;5009983;28;20049;-67
2022/08/12 09:28:10;;;;;;;3.13;1.92;;;31.20;30.10;;;;;;5009648;28;20025;-67
2022/08/12 09:30:38;;;;;;;1.95;1.55;;;31.20;30.20;;;;;;5008749;28;20033;-67
2022/08/12 09:33:05;;;;;;;1.98;1.40;;;31.40;30.30;;;;;;5011776;28;20042;-67
2022/08/12 09:35:36;;;;;;;3.50;1.63;;;31.60;30.10;;;;;;5012691;28;20080;-67
2022/08/12 09:38:02;;;;;;;2.40;1.80;;;31.60;29.80;;;;;;5009824;28;20038;-65
2022/08/12 09:40:29;;;;;;;1.83;1.73;;;31.60;29.80;;;;;;5012086;28;20025;-67
2022/08/12 09:45:42;;;;;;;2.97;1.98;;;31.70;29.80;;;;;;5012400;28;20083;-67
2022/08/12 09:48:08;;;;;;;3.35;1.95;;;31.80;29.20;;;;;;5009873;28;20037;-65
2022/08/12 09:50:34;;;;;;;2.75;1.80;;;31.80;29.00;;;;;;5009667;28;20436;-68
2022/08/12 09:53:04;;;;;;;2.20;2.00;;;31.80;28.80;;;;;;5012548;28;20065;-64
2022/08/12 09:55:31;;;;;;;4.47;1.90;;;31.70;28.70;;;;;;5010469;28;20021;-66
2022/08/12 09:57:57;;;;;;;3.05;1.92;;;31.70;28.60;;;;;;5012724;28;20404;-66
2022/08/12 10:00:24;;;;;;;1.63;1.52;;;31.70;28.00;;;;;;5011774;28;20109;-66
2022/08/12 10:03:05;;;;;;;3.08;1.60;;;31.70;28.20;;;;;;5009145;28;20161;-67
2022/08/12 10:05:35;;;;;;;1.67;1.43;;;31.70;28.40;;;;;;5009666;28;20045;-66
2022/08/12 10:08:03;;;;;;;3.83;1.70;;;31.80;28.70;;;;;;5009768;28;20080;-67
2022/08/12 10:10:29;;;;;;;3.00;1.90;;;31.90;28.60;;;;;;5010883;28;20017;-66
2022/08/12 10:15:44;;;;;;;3.95;1.65;;;32.10;28.70;;;;;;5011267;28;20100;-67
2022/08/12 10:18:11;;;;;;;3.00;1.77;;;32.10;28.70;;;;;;5009470;28;20485;-68
2022/08/12 10:20:38;;;;;;;2.95;1.88;;;32.00;28.80;;;;;;5008620;28;20032;-66
2022/08/12 10:23:04;;;;;;;2.47;1.88;;;32.00;28.90;;;;;;5009228;28;20084;-66
2022/08/12 10:30:58;;;;;;;3.65;2.33;;;32.30;28.80;;;;;;5008768;28;20135;-66
2022/08/12 10:33:24;;;;;;;2.35;2.00;;;32.00;28.80;;;;;;5009764;28;20469;-65
2022/08/12 10:35:52;;;;;;;2.40;1.90;;;32.00;29.10;;;;;;5009173;28;20125;-66
2022/08/12 10:38:18;;;;;;;5.22;2.20;;;32.20;29.30;;;;;;5009867;28;20036;-67
2022/08/12 10:43:41;;;;;;;2.42;1.90;;;32.30;28.70;;;;;;5011194;28;20400;-65
2022/08/12 10:46:18;;;;;;;2.15;1.80;;;32.20;28.30;;;;;;5009482;28;20017;-66
2022/08/12 10:48:50;;;;;;;3.75;1.63;;;32.20;28.60;;;;;;5010556;28;20057;-66
2022/08/12 10:51:17;;;;;;;3.83;1.88;;;32.30;28.50;;;;;;5009038;28;20036;-66
2022/08/12 10:53:46;;;;;;;2.63;1.67;;;32.30;28.50;;;;;;5008840;28;20058;-66
2022/08/12 10:56:16;;;;;;;3.55;1.90;;;32.40;28.40;;;;;;5008587;28;20400;-67
2022/08/12 10:58:43;;;;;;;4.00;2.00;;;32.50;28.80;;;;;;5004646;28;20029;-66
2022/08/12 11:01:09;;;;;;;2.63;1.70;;;32.50;28.20;;;;;;5010484;28;20079;-66
2022/08/12 11:03:41;;;;;;;3.10;1.65;;;32.50;28.30;;;;;;5008917;28;20026;-68
2022/08/12 11:06:08;;;;;;;2.67;1.90;;;32.50;28.50;;;;;;5008966;28;20080;-66
2022/08/12 11:08:38;;;;;;;1.95;1.60;;;32.50;28.20;;;;;;5011219;28;20033;-67
2022/08/12 11:11:07;;;;;;;2.22;1.70;;;32.60;28.00;;;;;;5007674;28;20052;-66
2022/08/12 11:13:36;;;;;;;2.67;1.70;;;32.60;28.10;;;;;;5011432;28;20100;-66
2022/08/12 11:16:05;;;;;;;1.98;1.67;;;32.60;28.00;;;;;;5007539;28;20030;-66
2022/08/12 11:18:31;;;;;;;2.20;2.00;;;32.50;28.60;;;;;;5010945;28;20091;-66
2022/08/12 11:20:58;;;;;;;3.40;1.77;;;32.50;28.10;;;;;;5012432;28;20030;-68
2022/08/12 11:23:23;;;;;;;3.88;2.28;;;32.50;28.30;;;;;;5008506;28;20031;-67
2022/08/12 11:25:49;;;;;;;2.97;1.90;;;32.40;28.30;;;;;;5012422;28;20408;-67
2022/08/12 11:28:15;;;;;;;2.63;1.95;;;32.40;28.50;;;;;;5011374;28;20045;-68
2022/08/12 11:30:42;;;;;;;3.03;2.08;;;32.30;28.40;;;;;;5011355;28;20041;-66
2022/08/12 11:33:08;;;;;;;2.00;1.85;;;32.50;28.40;;;;;;5008407;28;20052;-67
2022/08/12 11:35:37;;;;;;;2.88;1.70;;;32.50;28.50;;;;;;5007069;28;20117;-67
2022/08/12 11:38:04;;;;;;;1.33;1.23;;;32.70;28.60;;;;;;5008751;28;20081;-67
2022/08/12 11:40:29;;;;;;;1.60;1.50;;;33.00;28.50;;;;;;5010284;28;20055;-68
2022/08/12 11:42:56;;;;;;;2.35;2.15;;;33.20;28.30;;;;;;5010923;28;20037;-66
2022/08/12 11:45:22;;;;;;;2.20;2.00;;;33.20;28.00;;;;;;5000458;28;20030;-68
2022/08/12 11:47:48;;;;;;;2.20;1.85;;;32.80;28.10;;;;;;5008127;28;20109;-67
2022/08/12 11:50:13;;;;;;;3.17;1.80;;;32.70;28.40;;;;;;5010510;28;20033;-66
2022/08/12 11:52:39;;;;;;;2.28;1.90;;;32.80;28.40;;;;;;5009654;28;20033;-67
2022/08/12 11:55:05;;;;;;;2.83;1.90;;;32.80;28.30;;;;;;5011388;28;20029;-67
2022/08/12 11:57:30;;;;;;;2.63;1.80;;;32.80;28.30;;;;;;5008395;28;20117;-67
2022/08/12 11:59:56;;;;;;;1.95;1.67;;;32.70;28.30;;;;;;5011347;28;20121;-66
2022/08/12 12:02:22;;;;;;;1.90;1.75;;;33.00;28.40;;;;;;5008394;28;20030;-66
2022/08/12 12:04:49;;;;;;;2.53;1.95;;;33.30;28.30;;;;;;5009977;28;20033;-67
2022/08/12 12:07:15;;;;;;;5.30;2.13;;;33.30;28.30;;;;;;5004320;28;20105;-66
2022/08/12 12:09:40;;;;;;;1.75;1.65;;;33.30;28.20;;;;;;5010600;28;20113;-65
2022/08/12 12:12:06;;;;;;;2.72;1.92;;;33.40;28.40;;;;;;5010946;28;20387;-67
2022/08/12 12:14:32;;;;;;;2.42;2.20;;;33.50;28.20;;;;;;5013456;28;20033;-67
2022/08/12 12:16:57;;;;;;;4.55;2.10;;;33.20;28.30;;;;;;5011700;28;20026;-67
2022/08/12 12:19:23;;;;;;;1.90;1.73;;;33.10;28.20;;;;;;5011612;28;20729;-67
2022/08/12 12:21:48;;;;;;;2.45;2.00;;;33.00;28.30;;;;;;5014683;28;20569;-67
2022/08/12 12:24:14;;;;;;;2.88;1.70;;;33.10;28.50;;;;;;5011127;28;20053;-67
2022/08/12 12:26:40;;;;;;;2.10;1.90;;;33.30;28.50;;;;;;5012074;28;20026;-67
2022/08/12 12:29:06;;;;;;;2.63;1.90;;;33.40;28.40;;;;;;5014198;28;20018;-67
2022/08/12 12:31:32;;;;;;;2.20;1.50;;;33.50;28.20;;;;;;5011412;28;20388;-67
2022/08/12 12:33:57;;;;;;;3.10;2.05;;;33.90;28.30;;;;;;5014829;28;20053;-66
2022/08/12 12:36:23;;;;;;;2.58;2.10;;;33.70;27.90;;;;;;5014959;28;20053;-66
2022/08/12 12:38:49;;;;;;;2.58;2.05;;;33.70;28.00;;;;;;5012735;28;20038;-66
2022/08/12 12:41:15;;;;;;;2.15;1.90;;;33.70;28.00;;;;;;5015084;28;20034;-67
2022/08/12 12:43:41;;;;;;;2.15;1.80;;;33.70;28.10;;;;;;5011152;28;20128;-67
2022/08/12 12:46:06;;;;;;;2.78;1.90;;;33.70;28.10;;;;;;5012108;28;20026;-67
2022/08/12 12:48:32;;;;;;;2.85;2.20;;;33.90;28.10;;;;;;5012643;28;20092;-66
2022/08/12 12:51:15;;;;;;;3.03;2.00;;;34.00;27.50;;;;;;5012918;28;20057;-66
2022/08/12 12:53:47;;;;;;;2.60;1.58;;;34.10;27.50;;;;;;5011453;28;20034;-66
2022/08/12 12:56:19;;;;;;;3.70;1.90;;;34.20;27.40;;;;;;5010880;28;20028;-66
2022/08/12 12:58:48;;;;;;;2.80;2.15;;;34.20;26.90;;;;;;5006521;28;20022;-66
2022/08/12 13:01:15;;;;;;;2.55;1.92;;;34.00;27.10;;;;;;5009137;28;20030;-66
2022/08/12 13:03:41;;;;;;;2.70;1.80;;;34.20;26.80;;;;;;5012042;28;20028;-65
2022/08/12 13:06:07;;;;;;;4.28;1.80;;;34.20;26.90;;;;;;5013970;28;20097;-66
2022/08/12 13:08:33;;;;;;;2.60;1.60;;;34.20;27.10;;;;;;5010620;28;20018;-66
2022/08/12 13:11:02;;;;;;;3.55;1.40;;;34.40;27.00;;;;;;5013224;28;20080;-65
2022/08/12 13:13:29;;;;;;;2.83;1.70;;;34.70;27.00;;;;;;5009722;28;20060;-66
2022/08/12 13:15:56;;;;;;;1.63;1.52;;;34.60;26.70;;;;;;5010013;28;20114;-67
2022/08/12 13:18:24;;;;;;;2.35;1.70;;;34.60;26.70;;;;;;5008337;28;20025;-66
2022/08/12 13:20:50;;;;;;;3.17;1.80;;;34.80;26.70;;;;;;5009282;28;20030;-66
2022/08/12 13:23:16;;;;;;;2.08;1.55;;;34.70;26.60;;;;;;5012081;28;20021;-67
2022/08/12 13:25:42;;;;;;;2.40;2.00;;;34.90;26.60;;;;;;5009340;28;20712;-66
2022/08/12 13:28:22;;;;;;;3.33;1.73;;;34.90;26.40;;;;;;5008920;28;20022;-66
2022/08/12 13:30:51;;;;;;;3.28;1.70;;;34.80;26.40;;;;;;5012339;28;20026;-66
2022/08/12 13:33:21;;;;;;;3.67;1.60;;;34.80;26.40;;;;;;5013092;28;20826;-67
2022/08/12 13:35:49;;;;;;;2.53;1.92;;;34.80;26.50;;;;;;5009765;28;20049;-67
2022/08/12 13:38:14;;;;;;;2.72;1.77;;;34.60;26.30;;;;;;5010747;28;20018;-67
2022/08/12 13:40:40;;;;;;;3.63;1.70;;;34.50;26.50;;;;;;5009633;28;20038;-67
2022/08/12 13:43:05;;;;;;;2.67;1.67;;;34.60;26.50;;;;;;5010794;28;20149;-67
2022/08/12 13:45:32;;;;;;;2.03;1.80;;;34.60;26.60;;;;;;5009724;28;20109;-67
2022/08/12 13:48:03;;;;;;;5.60;1.75;;;34.60;26.60;;;;;;5009912;28;20121;-67
2022/08/12 13:50:38;;;;;;;2.95;1.67;;;34.60;26.60;;;;;;5012220;28;20109;-66
2022/08/12 13:53:09;;;;;;;2.10;1.70;;;34.80;26.50;;;;;;5003201;28;20060;-66
2022/08/12 13:55:36;;;;;;;2.17;1.70;;;34.80;26.30;;;;;;5005940;28;20037;-66
2022/08/12 13:58:08;;;;;;;3.20;1.90;;;34.70;26.40;;;;;;5007003;28;20147;-67
2022/08/12 14:00:35;;;;;;;2.25;1.60;;;34.70;26.30;;;;;;5006198;28;20029;-67
2022/08/12 14:03:00;;;;;;;3.00;1.90;;;34.80;26.10;;;;;;5009706;28;20025;-67
2022/08/12 14:05:27;;;;;;;2.85;1.60;;;34.80;26.30;;;;;;5008910;28;20065;-67
2022/08/12 14:08:02;;;;;;;2.05;1.42;;;35.00;26.30;;;;;;5007686;28;20033;-68
2022/08/12 14:10:35;;;;;;;1.95;1.70;;;35.20;26.30;;;;;;5008744;28;20033;-67
2022/08/12 14:13:15;;;;;;;1.90;1.60;;;35.40;26.10;;;;;;5007498;28;20500;-67
2022/08/12 14:15:49;;;;;;;3.45;1.75;;;35.20;26.00;;;;;;5011947;28;20033;-67
2022/08/12 14:18:21;;;;;;;3.15;1.65;;;35.20;26.20;;;;;;5010129;28;20369;-66
2022/08/12 14:20:49;;;;;;;4.35;1.80;;;35.30;26.10;;;;;;5010454;28;20076;-67
2022/08/12 14:23:17;;;;;;;2.22;1.70;;;35.20;25.90;;;;;;5012992;28;20026;-67
2022/08/12 14:25:43;;;;;;;1.70;1.60;;;35.00;26.10;;;;;;5010943;28;20032;-67
2022/08/12 14:28:14;;;;;;;1.85;1.52;;;35.10;26.40;;;;;;5009302;28;20109;-65
2022/08/12 14:30:57;;;;;;;5.18;1.73;;;35.30;26.20;;;;;;5005002;28;20034;-66
2022/08/12 14:33:24;;;;;;;3.55;1.98;;;35.10;25.80;;;;;;5011355;28;20037;-65
2022/08/12 14:35:51;;;;;;;1.95;1.75;;;34.90;26.00;;;;;;5008323;28;20049;-67
2022/08/12 14:38:29;;;;;;;3.10;1.80;;;34.70;26.10;;;;;;5011836;28;20409;-66
2022/08/12 14:41:00;;;;;;;3.63;1.77;;;34.60;25.90;;;;;;5008620;28;20515;-66
2022/08/12 14:43:36;;;;;;;2.25;1.60;;;34.40;25.90;;;;;;5009276;28;20064;-67
2022/08/12 14:46:03;;;;;;;5.38;1.90;;;34.40;25.90;;;;;;5009900;28;20021;-66